sensor_id;sensor_type;location;lat;lon;timestamp;P1;durP1;ratioP1;P2;durP2;ratioP2
50461;SDS011;45257;37.996;-122.328;2022-07-23T00:01:41;13.35;;;3.58;;
50461;SDS011;45257;37.996;-122.328;2022-07-23T00:04:08;15.95;;;3.45;;
50461;SDS011;45257;37.996;-122.328;2022-07-23T00:06:35;11.20;;;3.10;;
50461;SDS011;45257;37.996;-122.328;2022-07-23T00:09:03;14.25;;;3.50;;
50461;SDS011;45257;37.996;-122.328;2022-07-23T00:11:30;11.20;;;3.30;;
50461;SDS011;45257;37.996;-122.328;2022-07-23T00:13:58;12.65;;;3.40;;
50461;SDS011;45257;37.996;-122.328;2022-07-23T00:16:25;14.02;;;3.85;;
50461;SDS011;45257;37.996;-122.328;2022-07-23T00:18:53;15.05;;;4.35;;
50461;SDS011;45257;37.996;-122.328;2022-07-23T00:21:20;12.60;;;3.78;;
50461;SDS011;45257;37.996;-122.328;2022-07-23T00:23:47;12.13;;;3.92;;
50461;SDS011;45257;37.996;-122.328;2022-07-23T00:26:14;8.63;;;3.53;;
50461;SDS011;45257;37.996;-122.328;2022-07-23T00:28:41;14.90;;;3.63;;
50461;SDS011;45257;37.996;-122.328;2022-07-23T00:31:08;12.10;;;3.42;;
50461;SDS011;45257;37.996;-122.328;2022-07-23T00:33:35;11.40;;;3.17;;
50461;SDS011;45257;37.996;-122.328;2022-07-23T00:36:02;11.32;;;2.90;;
50461;SDS011;45257;37.996;-122.328;2022-07-23T00:38:29;13.25;;;3.50;;
50461;SDS011;45257;37.996;-122.328;2022-07-23T00:40:57;13.35;;;3.20;;
50461;SDS011;45257;37.996;-122.328;2022-07-23T00:43:24;11.68;;;3.28;;
50461;SDS011;45257;37.996;-122.328;2022-07-23T00:45:51;10.98;;;3.00;;
50461;SDS011;45257;37.996;-122.328;2022-07-23T00:48:18;9.43;;;3.08;;
50461;SDS011;45257;37.996;-122.328;2022-07-23T00:50:45;12.00;;;3.72;;
50461;SDS011;45257;37.996;-122.328;2022-07-23T00:53:12;10.02;;;3.20;;
50461;SDS011;45257;37.996;-122.328;2022-07-23T00:55:40;11.75;;;3.30;;
50461;SDS011;45257;37.996;-122.328;2022-07-23T00:58:07;12.82;;;3.33;;
50461;SDS011;45257;37.996;-122.328;2022-07-23T01:00:35;13.57;;;3.50;;
50461;SDS011;45257;37.996;-122.328;2022-07-23T01:03:03;11.82;;;3.70;;
50461;SDS011;45257;37.996;-122.328;2022-07-23T01:05:30;12.82;;;3.55;;
50461;SDS011;45257;37.996;-122.328;2022-07-23T01:07:57;10.32;;;2.88;;
50461;SDS011;45257;37.996;-122.328;2022-07-23T01:10:24;14.05;;;2.67;;
50461;SDS011;45257;37.996;-122.328;2022-07-23T01:13:07;13.52;;;3.15;;
50461;SDS011;45257;37.996;-122.328;2022-07-23T01:15:36;10.32;;;3.67;;
50461;SDS011;45257;37.996;-122.328;2022-07-23T01:18:04;15.18;;;3.22;;
50461;SDS011;45257;37.996;-122.328;2022-07-23T01:20:33;12.05;;;3.58;;
50461;SDS011;45257;37.996;-122.328;2022-07-23T01:23:00;9.27;;;2.67;;
50461;SDS011;45257;37.996;-122.328;2022-07-23T01:25:27;9.82;;;3.00;;
50461;SDS011;45257;37.996;-122.328;2022-07-23T01:27:54;11.57;;;3.05;;
50461;SDS011;45257;37.996;-122.328;2022-07-23T01:30:21;11.43;;;3.10;;
50461;SDS011;45257;37.996;-122.328;2022-07-23T01:32:49;8.75;;;3.08;;
50461;SDS011;45257;37.996;-122.328;2022-07-23T01:35:16;11.57;;;3.80;;
50461;SDS011;45257;37.996;-122.328;2022-07-23T01:37:43;11.02;;;3.22;;
50461;SDS011;45257;37.996;-122.328;2022-07-23T01:40:10;10.30;;;3.58;;
50461;SDS011;45257;37.996;-122.328;2022-07-23T01:42:37;12.05;;;3.83;;
50461;SDS011;45257;37.996;-122.328;2022-07-23T01:45:04;11.15;;;3.35;;
50461;SDS011;45257;37.996;-122.328;2022-07-23T01:47:32;12.98;;;3.45;;
50461;SDS011;45257;37.996;-122.328;2022-07-23T01:49:59;10.50;;;3.60;;
50461;SDS011;45257;37.996;-122.328;2022-07-23T01:52:26;9.00;;;2.92;;
50461;SDS011;45257;37.996;-122.328;2022-07-23T01:54:53;11.57;;;3.10;;
50461;SDS011;45257;37.996;-122.328;2022-07-23T01:57:20;11.15;;;3.30;;
50461;SDS011;45257;37.996;-122.328;2022-07-23T01:59:47;9.27;;;3.00;;
50461;SDS011;45257;37.996;-122.328;2022-07-23T02:02:14;10.43;;;3.00;;
50461;SDS011;45257;37.996;-122.328;2022-07-23T02:04:41;11.18;;;3.35;;
50461;SDS011;45257;37.996;-122.328;2022-07-23T02:07:08;9.05;;;3.25;;
50461;SDS011;45257;37.996;-122.328;2022-07-23T02:09:35;9.18;;;3.05;;
50461;SDS011;45257;37.996;-122.328;2022-07-23T02:12:02;12.95;;;3.55;;
50461;SDS011;45257;37.996;-122.328;2022-07-23T02:14:30;11.25;;;3.10;;
50461;SDS011;45257;37.996;-122.328;2022-07-23T02:16:56;9.80;;;3.17;;
50461;SDS011;45257;37.996;-122.328;2022-07-23T02:19:24;8.95;;;2.92;;
50461;SDS011;45257;37.996;-122.328;2022-07-23T02:21:51;9.90;;;3.35;;
50461;SDS011;45257;37.996;-122.328;2022-07-23T02:24:19;12.18;;;3.88;;
50461;SDS011;45257;37.996;-122.328;2022-07-23T02:26:47;9.10;;;3.00;;
50461;SDS011;45257;37.996;-122.328;2022-07-23T02:29:14;10.07;;;3.20;;
50461;SDS011;45257;37.996;-122.328;2022-07-23T02:31:41;12.02;;;3.50;;
50461;SDS011;45257;37.996;-122.328;2022-07-23T02:34:09;10.60;;;3.17;;
50461;SDS011;45257;37.996;-122.328;2022-07-23T02:36:37;11.98;;;3.10;;
50461;SDS011;45257;37.996;-122.328;2022-07-23T02:39:04;9.60;;;3.45;;
50461;SDS011;45257;37.996;-122.328;2022-07-23T02:41:32;10.25;;;3.03;;
50461;SDS011;45257;37.996;-122.328;2022-07-23T02:43:58;10.30;;;3.15;;
50461;SDS011;45257;37.996;-122.328;2022-07-23T02:46:25;9.65;;;2.90;;
50461;SDS011;45257;37.996;-122.328;2022-07-23T02:48:53;10.60;;;3.00;;
50461;SDS011;45257;37.996;-122.328;2022-07-23T02:51:20;10.60;;;3.35;;
50461;SDS011;45257;37.996;-122.328;2022-07-23T02:53:47;13.45;;;3.60;;
50461;SDS011;45257;37.996;-122.328;2022-07-23T02:56:14;13.07;;;4.18;;
50461;SDS011;45257;37.996;-122.328;2022-07-23T02:58:41;9.68;;;2.63;;
50461;SDS011;45257;37.996;-122.328;2022-07-23T03:01:08;7.93;;;3.13;;
50461;SDS011;45257;37.996;-122.328;2022-07-23T03:03:35;13.10;;;3.67;;
50461;SDS011;45257;37.996;-122.328;2022-07-23T03:06:02;13.82;;;3.72;;
50461;SDS011;45257;37.996;-122.328;2022-07-23T03:08:29;12.55;;;3.60;;
50461;SDS011;45257;37.996;-122.328;2022-07-23T03:10:56;16.20;;;5.00;;
50461;SDS011;45257;37.996;-122.328;2022-07-23T03:13:23;15.98;;;4.60;;
50461;SDS011;45257;37.996;-122.328;2022-07-23T03:15:50;14.90;;;4.20;;
50461;SDS011;45257;37.996;-122.328;2022-07-23T03:18:17;14.73;;;4.45;;
50461;SDS011;45257;37.996;-122.328;2022-07-23T03:20:45;13.07;;;4.28;;
50461;SDS011;45257;37.996;-122.328;2022-07-23T03:23:12;14.85;;;5.05;;
50461;SDS011;45257;37.996;-122.328;2022-07-23T03:25:39;11.32;;;4.18;;
50461;SDS011;45257;37.996;-122.328;2022-07-23T03:28:06;13.88;;;3.72;;
50461;SDS011;45257;37.996;-122.328;2022-07-23T03:30:33;14.73;;;3.95;;
50461;SDS011;45257;37.996;-122.328;2022-07-23T03:32:59;14.40;;;4.20;;
50461;SDS011;45257;37.996;-122.328;2022-07-23T03:35:26;14.45;;;4.47;;
50461;SDS011;45257;37.996;-122.328;2022-07-23T03:37:53;13.38;;;4.63;;
50461;SDS011;45257;37.996;-122.328;2022-07-23T03:40:20;12.40;;;4.13;;
50461;SDS011;45257;37.996;-122.328;2022-07-23T03:42:47;12.98;;;4.47;;
50461;SDS011;45257;37.996;-122.328;2022-07-23T03:45:14;16.52;;;5.97;;
50461;SDS011;45257;37.996;-122.328;2022-07-23T03:47:41;15.90;;;4.40;;
50461;SDS011;45257;37.996;-122.328;2022-07-23T03:50:09;15.93;;;4.38;;
50461;SDS011;45257;37.996;-122.328;2022-07-23T03:52:36;15.38;;;5.00;;
50461;SDS011;45257;37.996;-122.328;2022-07-23T03:55:03;13.23;;;4.35;;
50461;SDS011;45257;37.996;-122.328;2022-07-23T03:57:31;11.10;;;4.32;;
50461;SDS011;45257;37.996;-122.328;2022-07-23T03:59:58;14.00;;;4.28;;
50461;SDS011;45257;37.996;-122.328;2022-07-23T04:02:25;12.68;;;4.00;;
50461;SDS011;45257;37.996;-122.328;2022-07-23T04:04:53;15.50;;;4.28;;
50461;SDS011;45257;37.996;-122.328;2022-07-23T04:07:20;11.32;;;3.95;;
50461;SDS011;45257;37.996;-122.328;2022-07-23T04:09:47;12.05;;;4.25;;
50461;SDS011;45257;37.996;-122.328;2022-07-23T04:12:14;13.57;;;4.28;;
50461;SDS011;45257;37.996;-122.328;2022-07-23T04:14:41;9.07;;;3.55;;
50461;SDS011;45257;37.996;-122.328;2022-07-23T04:17:08;12.60;;;3.95;;
50461;SDS011;45257;37.996;-122.328;2022-07-23T04:19:36;13.63;;;4.00;;
50461;SDS011;45257;37.996;-122.328;2022-07-23T04:22:12;9.95;;;3.65;;
50461;SDS011;45257;37.996;-122.328;2022-07-23T04:24:39;8.73;;;3.83;;
50461;SDS011;45257;37.996;-122.328;2022-07-23T04:27:06;12.77;;;4.03;;
50461;SDS011;45257;37.996;-122.328;2022-07-23T04:29:33;9.10;;;3.65;;
50461;SDS011;45257;37.996;-122.328;2022-07-23T04:32:00;11.60;;;3.78;;
50461;SDS011;45257;37.996;-122.328;2022-07-23T04:34:27;12.02;;;3.22;;
50461;SDS011;45257;37.996;-122.328;2022-07-23T04:36:54;9.23;;;3.38;;
50461;SDS011;45257;37.996;-122.328;2022-07-23T04:39:21;14.32;;;4.15;;
50461;SDS011;45257;37.996;-122.328;2022-07-23T04:41:48;9.82;;;3.58;;
50461;SDS011;45257;37.996;-122.328;2022-07-23T04:44:15;11.95;;;3.58;;
50461;SDS011;45257;37.996;-122.328;2022-07-23T04:46:42;7.93;;;3.00;;
50461;SDS011;45257;37.996;-122.328;2022-07-23T04:49:09;9.43;;;3.55;;
50461;SDS011;45257;37.996;-122.328;2022-07-23T04:51:36;8.50;;;3.22;;
50461;SDS011;45257;37.996;-122.328;2022-07-23T04:54:03;10.55;;;3.58;;
50461;SDS011;45257;37.996;-122.328;2022-07-23T04:56:30;9.38;;;2.97;;
50461;SDS011;45257;37.996;-122.328;2022-07-23T04:58:57;12.52;;;3.45;;
50461;SDS011;45257;37.996;-122.328;2022-07-23T05:01:25;9.43;;;3.30;;
50461;SDS011;45257;37.996;-122.328;2022-07-23T05:03:52;12.57;;;3.90;;
50461;SDS011;45257;37.996;-122.328;2022-07-23T05:06:19;9.65;;;3.20;;
50461;SDS011;45257;37.996;-122.328;2022-07-23T05:08:46;9.48;;;3.65;;
50461;SDS011;45257;37.996;-122.328;2022-07-23T05:11:13;10.00;;;3.70;;
50461;SDS011;45257;37.996;-122.328;2022-07-23T05:13:41;9.00;;;2.92;;
50461;SDS011;45257;37.996;-122.328;2022-07-23T05:16:08;8.45;;;3.50;;
50461;SDS011;45257;37.996;-122.328;2022-07-23T05:18:35;6.15;;;2.70;;
50461;SDS011;45257;37.996;-122.328;2022-07-23T05:21:01;8.35;;;3.28;;
50461;SDS011;45257;37.996;-122.328;2022-07-23T05:23:28;7.55;;;2.88;;
50461;SDS011;45257;37.996;-122.328;2022-07-23T05:25:55;7.82;;;2.80;;
50461;SDS011;45257;37.996;-122.328;2022-07-23T05:28:22;8.45;;;2.67;;
50461;SDS011;45257;37.996;-122.328;2022-07-23T05:30:49;7.30;;;2.50;;
50461;SDS011;45257;37.996;-122.328;2022-07-23T05:33:20;8.57;;;3.05;;
50461;SDS011;45257;37.996;-122.328;2022-07-23T05:35:47;11.38;;;3.20;;
50461;SDS011;45257;37.996;-122.328;2022-07-23T05:38:14;6.72;;;3.05;;
50461;SDS011;45257;37.996;-122.328;2022-07-23T05:40:41;8.80;;;2.97;;
50461;SDS011;45257;37.996;-122.328;2022-07-23T05:43:08;10.75;;;3.38;;
50461;SDS011;45257;37.996;-122.328;2022-07-23T05:45:34;8.98;;;3.40;;
50461;SDS011;45257;37.996;-122.328;2022-07-23T05:48:01;9.52;;;3.28;;
50461;SDS011;45257;37.996;-122.328;2022-07-23T05:50:29;10.32;;;3.50;;
50461;SDS011;45257;37.996;-122.328;2022-07-23T05:52:56;9.80;;;3.17;;
50461;SDS011;45257;37.996;-122.328;2022-07-23T05:55:23;6.40;;;2.60;;
50461;SDS011;45257;37.996;-122.328;2022-07-23T05:57:50;8.00;;;3.05;;
50461;SDS011;45257;37.996;-122.328;2022-07-23T06:00:17;7.20;;;2.88;;
50461;SDS011;45257;37.996;-122.328;2022-07-23T06:02:43;9.20;;;3.20;;
50461;SDS011;45257;37.996;-122.328;2022-07-23T06:05:10;7.97;;;3.55;;
50461;SDS011;45257;37.996;-122.328;2022-07-23T06:07:37;7.57;;;2.60;;
50461;SDS011;45257;37.996;-122.328;2022-07-23T06:10:04;9.45;;;3.30;;
50461;SDS011;45257;37.996;-122.328;2022-07-23T06:12:32;9.10;;;3.03;;
50461;SDS011;45257;37.996;-122.328;2022-07-23T06:14:59;10.02;;;3.17;;
50461;SDS011;45257;37.996;-122.328;2022-07-23T06:17:27;8.13;;;2.63;;
50461;SDS011;45257;37.996;-122.328;2022-07-23T06:19:55;7.70;;;2.97;;
50461;SDS011;45257;37.996;-122.328;2022-07-23T06:22:22;6.28;;;2.75;;
50461;SDS011;45257;37.996;-122.328;2022-07-23T06:24:49;8.40;;;3.10;;
50461;SDS011;45257;37.996;-122.328;2022-07-23T06:27:17;8.10;;;3.45;;
50461;SDS011;45257;37.996;-122.328;2022-07-23T06:29:44;7.78;;;2.72;;
50461;SDS011;45257;37.996;-122.328;2022-07-23T06:32:11;8.73;;;3.05;;
50461;SDS011;45257;37.996;-122.328;2022-07-23T06:34:38;8.65;;;2.60;;
50461;SDS011;45257;37.996;-122.328;2022-07-23T06:37:05;6.30;;;2.60;;
50461;SDS011;45257;37.996;-122.328;2022-07-23T06:39:32;7.65;;;2.95;;
50461;SDS011;45257;37.996;-122.328;2022-07-23T06:41:58;7.55;;;2.78;;
50461;SDS011;45257;37.996;-122.328;2022-07-23T06:44:26;7.68;;;2.30;;
50461;SDS011;45257;37.996;-122.328;2022-07-23T06:46:53;7.80;;;2.80;;
50461;SDS011;45257;37.996;-122.328;2022-07-23T06:49:20;9.25;;;2.67;;
50461;SDS011;45257;37.996;-122.328;2022-07-23T06:51:50;6.87;;;2.47;;
50461;SDS011;45257;37.996;-122.328;2022-07-23T06:54:17;8.32;;;2.53;;
50461;SDS011;45257;37.996;-122.328;2022-07-23T06:56:44;7.10;;;3.00;;
50461;SDS011;45257;37.996;-122.328;2022-07-23T06:59:11;9.15;;;2.60;;
50461;SDS011;45257;37.996;-122.328;2022-07-23T07:01:38;9.45;;;3.17;;
50461;SDS011;45257;37.996;-122.328;2022-07-23T07:04:05;6.70;;;2.80;;
50461;SDS011;45257;37.996;-122.328;2022-07-23T07:06:32;8.80;;;2.65;;
50461;SDS011;45257;37.996;-122.328;2022-07-23T07:08:59;9.07;;;2.60;;
50461;SDS011;45257;37.996;-122.328;2022-07-23T07:11:26;8.27;;;2.85;;
50461;SDS011;45257;37.996;-122.328;2022-07-23T07:13:53;6.57;;;2.40;;
50461;SDS011;45257;37.996;-122.328;2022-07-23T07:16:20;10.05;;;3.03;;
50461;SDS011;45257;37.996;-122.328;2022-07-23T07:18:47;9.25;;;3.00;;
50461;SDS011;45257;37.996;-122.328;2022-07-23T07:21:14;9.70;;;3.20;;
50461;SDS011;45257;37.996;-122.328;2022-07-23T07:23:41;9.65;;;2.85;;
50461;SDS011;45257;37.996;-122.328;2022-07-23T07:26:08;8.68;;;3.28;;
50461;SDS011;45257;37.996;-122.328;2022-07-23T07:28:35;9.13;;;3.10;;
50461;SDS011;45257;37.996;-122.328;2022-07-23T07:31:02;8.68;;;3.05;;
50461;SDS011;45257;37.996;-122.328;2022-07-23T07:33:29;9.23;;;3.05;;
50461;SDS011;45257;37.996;-122.328;2022-07-23T07:35:56;10.25;;;3.10;;
50461;SDS011;45257;37.996;-122.328;2022-07-23T07:38:23;8.55;;;2.72;;
50461;SDS011;45257;37.996;-122.328;2022-07-23T07:40:50;8.27;;;2.58;;
50461;SDS011;45257;37.996;-122.328;2022-07-23T07:43:17;9.10;;;2.88;;
50461;SDS011;45257;37.996;-122.328;2022-07-23T07:45:44;11.20;;;3.10;;
50461;SDS011;45257;37.996;-122.328;2022-07-23T07:48:12;8.73;;;2.97;;
50461;SDS011;45257;37.996;-122.328;2022-07-23T07:50:39;8.65;;;3.28;;
50461;SDS011;45257;37.996;-122.328;2022-07-23T07:53:07;10.60;;;3.33;;
50461;SDS011;45257;37.996;-122.328;2022-07-23T07:55:34;9.43;;;3.85;;
50461;SDS011;45257;37.996;-122.328;2022-07-23T07:58:01;7.32;;;2.92;;
50461;SDS011;45257;37.996;-122.328;2022-07-23T08:00:28;9.60;;;3.35;;
50461;SDS011;45257;37.996;-122.328;2022-07-23T08:02:55;11.88;;;3.17;;
50461;SDS011;45257;37.996;-122.328;2022-07-23T08:05:24;9.40;;;2.95;;
50461;SDS011;45257;37.996;-122.328;2022-07-23T08:07:57;10.93;;;3.50;;
50461;SDS011;45257;37.996;-122.328;2022-07-23T08:10:25;9.13;;;3.50;;
50461;SDS011;45257;37.996;-122.328;2022-07-23T08:12:54;10.55;;;3.30;;
50461;SDS011;45257;37.996;-122.328;2022-07-23T08:15:23;7.40;;;2.90;;
50461;SDS011;45257;37.996;-122.328;2022-07-23T08:17:53;11.35;;;3.33;;
50461;SDS011;45257;37.996;-122.328;2022-07-23T08:20:22;11.40;;;4.30;;
50461;SDS011;45257;37.996;-122.328;2022-07-23T08:23:00;15.48;;;4.07;;
50461;SDS011;45257;37.996;-122.328;2022-07-23T08:25:35;13.10;;;4.00;;
50461;SDS011;45257;37.996;-122.328;2022-07-23T08:28:06;12.68;;;3.83;;
50461;SDS011;45257;37.996;-122.328;2022-07-23T08:30:38;12.85;;;4.13;;
50461;SDS011;45257;37.996;-122.328;2022-07-23T08:33:11;13.35;;;4.00;;
50461;SDS011;45257;37.996;-122.328;2022-07-23T08:35:41;8.32;;;3.30;;
50461;SDS011;45257;37.996;-122.328;2022-07-23T08:38:16;9.60;;;3.63;;
50461;SDS011;45257;37.996;-122.328;2022-07-23T08:40:46;12.93;;;3.27;;
50461;SDS011;45257;37.996;-122.328;2022-07-23T08:43:18;7.78;;;2.83;;
50461;SDS011;45257;37.996;-122.328;2022-07-23T08:45:50;7.18;;;2.90;;
50461;SDS011;45257;37.996;-122.328;2022-07-23T08:48:23;7.35;;;3.10;;
50461;SDS011;45257;37.996;-122.328;2022-07-23T08:50:53;10.35;;;3.35;;
50461;SDS011;45257;37.996;-122.328;2022-07-23T08:53:22;10.75;;;3.38;;
50461;SDS011;45257;37.996;-122.328;2022-07-23T08:55:52;14.73;;;3.83;;
50461;SDS011;45257;37.996;-122.328;2022-07-23T08:58:26;10.35;;;3.22;;
50461;SDS011;45257;37.996;-122.328;2022-07-23T09:00:54;11.45;;;3.97;;
50461;SDS011;45257;37.996;-122.328;2022-07-23T09:03:23;9.73;;;3.83;;
50461;SDS011;45257;37.996;-122.328;2022-07-23T09:06:03;10.57;;;3.55;;
50461;SDS011;45257;37.996;-122.328;2022-07-23T09:08:35;11.10;;;3.17;;
50461;SDS011;45257;37.996;-122.328;2022-07-23T09:11:08;8.95;;;3.08;;
50461;SDS011;45257;37.996;-122.328;2022-07-23T09:13:41;7.25;;;3.15;;
50461;SDS011;45257;37.996;-122.328;2022-07-23T09:16:19;9.52;;;2.85;;
50461;SDS011;45257;37.996;-122.328;2022-07-23T09:24:10;19.48;;;5.22;;
50461;SDS011;45257;37.996;-122.328;2022-07-23T09:26:43;10.73;;;3.78;;
50461;SDS011;45257;37.996;-122.328;2022-07-23T09:34:32;7.80;;;3.00;;
50461;SDS011;45257;37.996;-122.328;2022-07-23T09:37:12;5.75;;;2.80;;
50461;SDS011;45257;37.996;-122.328;2022-07-23T09:39:45;8.05;;;2.75;;
50461;SDS011;45257;37.996;-122.328;2022-07-23T09:42:14;6.97;;;2.80;;
50461;SDS011;45257;37.996;-122.328;2022-07-23T09:44:53;7.15;;;2.92;;
50461;SDS011;45257;37.996;-122.328;2022-07-23T09:47:24;5.20;;;2.58;;
50461;SDS011;45257;37.996;-122.328;2022-07-23T09:50:04;7.97;;;2.92;;
50461;SDS011;45257;37.996;-122.328;2022-07-23T09:52:43;6.95;;;2.50;;
50461;SDS011;45257;37.996;-122.328;2022-07-23T09:55:14;10.27;;;3.00;;
50461;SDS011;45257;37.996;-122.328;2022-07-23T09:57:43;10.27;;;3.17;;
50461;SDS011;45257;37.996;-122.328;2022-07-23T10:00:21;9.63;;;3.10;;
50461;SDS011;45257;37.996;-122.328;2022-07-23T10:02:50;7.40;;;2.63;;
50461;SDS011;45257;37.996;-122.328;2022-07-23T10:05:18;6.63;;;2.20;;
50461;SDS011;45257;37.996;-122.328;2022-07-23T10:07:46;7.57;;;3.03;;
50461;SDS011;45257;37.996;-122.328;2022-07-23T10:10:14;6.15;;;2.75;;
50461;SDS011;45257;37.996;-122.328;2022-07-23T10:12:46;8.02;;;2.20;;
50461;SDS011;45257;37.996;-122.328;2022-07-23T10:15:16;7.72;;;2.33;;
50461;SDS011;45257;37.996;-122.328;2022-07-23T10:20:35;6.85;;;2.53;;
50461;SDS011;45257;37.996;-122.328;2022-07-23T10:25:59;6.18;;;2.55;;
50461;SDS011;45257;37.996;-122.328;2022-07-23T10:31:41;10.93;;;3.20;;
50461;SDS011;45257;37.996;-122.328;2022-07-23T10:37:46;8.20;;;3.03;;
50461;SDS011;45257;37.996;-122.328;2022-07-23T10:40:20;6.72;;;2.70;;
50461;SDS011;45257;37.996;-122.328;2022-07-23T10:42:49;6.47;;;2.40;;
50461;SDS011;45257;37.996;-122.328;2022-07-23T10:47:52;6.65;;;2.42;;
50461;SDS011;45257;37.996;-122.328;2022-07-23T10:50:21;6.80;;;2.63;;
50461;SDS011;45257;37.996;-122.328;2022-07-23T10:58:07;10.65;;;3.25;;
50461;SDS011;45257;37.996;-122.328;2022-07-23T11:00:35;6.78;;;2.83;;
50461;SDS011;45257;37.996;-122.328;2022-07-23T11:03:30;7.68;;;2.40;;
50461;SDS011;45257;37.996;-122.328;2022-07-23T11:06:04;7.78;;;2.90;;
50461;SDS011;45257;37.996;-122.328;2022-07-23T11:08:32;8.68;;;2.42;;
50461;SDS011;45257;37.996;-122.328;2022-07-23T11:11:08;6.82;;;2.53;;
50461;SDS011;45257;37.996;-122.328;2022-07-23T11:13:37;7.80;;;2.67;;
50461;SDS011;45257;37.996;-122.328;2022-07-23T11:16:13;6.15;;;2.10;;
50461;SDS011;45257;37.996;-122.328;2022-07-23T11:18:54;6.32;;;2.15;;
50461;SDS011;45257;37.996;-122.328;2022-07-23T11:26:44;5.65;;;2.13;;
50461;SDS011;45257;37.996;-122.328;2022-07-23T11:32:20;8.85;;;2.20;;
50461;SDS011;45257;37.996;-122.328;2022-07-23T11:34:55;7.15;;;2.55;;
50461;SDS011;45257;37.996;-122.328;2022-07-23T11:37:33;7.30;;;2.67;;
50461;SDS011;45257;37.996;-122.328;2022-07-23T11:40:04;7.53;;;2.63;;
50461;SDS011;45257;37.996;-122.328;2022-07-23T11:42:36;5.30;;;2.28;;
50461;SDS011;45257;37.996;-122.328;2022-07-23T11:45:21;6.57;;;2.55;;
50461;SDS011;45257;37.996;-122.328;2022-07-23T11:47:51;4.93;;;1.55;;
50461;SDS011;45257;37.996;-122.328;2022-07-23T11:50:18;6.28;;;2.35;;
50461;SDS011;45257;37.996;-122.328;2022-07-23T11:52:44;8.23;;;2.10;;
50461;SDS011;45257;37.996;-122.328;2022-07-23T11:55:11;8.50;;;2.88;;
50461;SDS011;45257;37.996;-122.328;2022-07-23T11:57:41;7.53;;;2.28;;
50461;SDS011;45257;37.996;-122.328;2022-07-23T12:00:10;5.80;;;1.80;;
50461;SDS011;45257;37.996;-122.328;2022-07-23T12:02:44;7.28;;;2.85;;
50461;SDS011;45257;37.996;-122.328;2022-07-23T12:05:15;7.30;;;2.50;;
50461;SDS011;45257;37.996;-122.328;2022-07-23T12:07:45;8.95;;;2.78;;
50461;SDS011;45257;37.996;-122.328;2022-07-23T12:10:25;5.53;;;2.00;;
50461;SDS011;45257;37.996;-122.328;2022-07-23T12:12:56;6.13;;;2.05;;
50461;SDS011;45257;37.996;-122.328;2022-07-23T12:15:27;8.07;;;2.15;;
50461;SDS011;45257;37.996;-122.328;2022-07-23T12:18:03;7.97;;;2.20;;
50461;SDS011;45257;37.996;-122.328;2022-07-23T12:20:33;7.57;;;2.33;;
50461;SDS011;45257;37.996;-122.328;2022-07-23T12:23:04;6.30;;;1.95;;
50461;SDS011;45257;37.996;-122.328;2022-07-23T12:25:34;6.43;;;2.13;;
50461;SDS011;45257;37.996;-122.328;2022-07-23T12:30:51;5.43;;;2.10;;
50461;SDS011;45257;37.996;-122.328;2022-07-23T12:33:21;5.57;;;2.08;;
50461;SDS011;45257;37.996;-122.328;2022-07-23T12:35:58;5.80;;;1.95;;
50461;SDS011;45257;37.996;-122.328;2022-07-23T12:38:27;5.70;;;2.72;;
50461;SDS011;45257;37.996;-122.328;2022-07-23T12:41:03;4.15;;;1.70;;
50461;SDS011;45257;37.996;-122.328;2022-07-23T12:43:32;6.63;;;2.72;;
50461;SDS011;45257;37.996;-122.328;2022-07-23T12:51:23;5.45;;;1.73;;
50461;SDS011;45257;37.996;-122.328;2022-07-23T12:54:05;5.85;;;2.08;;
50461;SDS011;45257;37.996;-122.328;2022-07-23T12:56:38;4.38;;;1.55;;
50461;SDS011;45257;37.996;-122.328;2022-07-23T12:59:10;3.13;;;1.67;;
50461;SDS011;45257;37.996;-122.328;2022-07-23T13:01:45;4.20;;;1.60;;
50461;SDS011;45257;37.996;-122.328;2022-07-23T13:04:24;7.05;;;1.83;;
50461;SDS011;45257;37.996;-122.328;2022-07-23T13:06:52;4.15;;;1.83;;
50461;SDS011;45257;37.996;-122.328;2022-07-23T13:09:26;6.35;;;2.20;;
50461;SDS011;45257;37.996;-122.328;2022-07-23T13:11:56;4.80;;;1.80;;
50461;SDS011;45257;37.996;-122.328;2022-07-23T13:14:24;6.80;;;2.05;;
50461;SDS011;45257;37.996;-122.328;2022-07-23T13:16:52;5.40;;;1.90;;
50461;SDS011;45257;37.996;-122.328;2022-07-23T13:19:20;5.07;;;1.95;;
50461;SDS011;45257;37.996;-122.328;2022-07-23T13:21:47;3.70;;;1.52;;
50461;SDS011;45257;37.996;-122.328;2022-07-23T13:24:14;6.22;;;1.77;;
50461;SDS011;45257;37.996;-122.328;2022-07-23T13:26:41;5.95;;;1.90;;
50461;SDS011;45257;37.996;-122.328;2022-07-23T13:29:09;5.15;;;1.83;;
50461;SDS011;45257;37.996;-122.328;2022-07-23T13:31:36;5.13;;;1.75;;
50461;SDS011;45257;37.996;-122.328;2022-07-23T13:34:04;3.60;;;1.42;;
50461;SDS011;45257;37.996;-122.328;2022-07-23T13:36:32;4.32;;;1.70;;
50461;SDS011;45257;37.996;-122.328;2022-07-23T13:38:59;4.43;;;1.67;;
50461;SDS011;45257;37.996;-122.328;2022-07-23T13:41:26;4.72;;;1.90;;
50461;SDS011;45257;37.996;-122.328;2022-07-23T13:43:53;7.25;;;1.80;;
50461;SDS011;45257;37.996;-122.328;2022-07-23T13:46:21;5.00;;;1.42;;
50461;SDS011;45257;37.996;-122.328;2022-07-23T13:48:48;3.80;;;1.40;;
50461;SDS011;45257;37.996;-122.328;2022-07-23T13:51:15;5.97;;;1.85;;
50461;SDS011;45257;37.996;-122.328;2022-07-23T13:53:43;6.68;;;1.73;;
50461;SDS011;45257;37.996;-122.328;2022-07-23T13:56:11;4.32;;;1.60;;
50461;SDS011;45257;37.996;-122.328;2022-07-23T13:58:38;5.47;;;1.83;;
50461;SDS011;45257;37.996;-122.328;2022-07-23T14:01:05;8.07;;;1.58;;
50461;SDS011;45257;37.996;-122.328;2022-07-23T14:03:33;4.70;;;1.65;;
50461;SDS011;45257;37.996;-122.328;2022-07-23T14:06:00;3.85;;;1.83;;
50461;SDS011;45257;37.996;-122.328;2022-07-23T14:08:27;5.32;;;1.50;;
50461;SDS011;45257;37.996;-122.328;2022-07-23T14:10:54;8.32;;;2.17;;
50461;SDS011;45257;37.996;-122.328;2022-07-23T14:13:21;4.70;;;1.75;;
50461;SDS011;45257;37.996;-122.328;2022-07-23T14:15:48;4.85;;;2.40;;
50461;SDS011;45257;37.996;-122.328;2022-07-23T14:18:15;5.35;;;1.60;;
50461;SDS011;45257;37.996;-122.328;2022-07-23T14:20:43;8.38;;;1.88;;
50461;SDS011;45257;37.996;-122.328;2022-07-23T14:23:10;5.97;;;1.70;;
50461;SDS011;45257;37.996;-122.328;2022-07-23T14:25:36;4.10;;;1.42;;
50461;SDS011;45257;37.996;-122.328;2022-07-23T14:28:03;3.85;;;1.33;;
50461;SDS011;45257;37.996;-122.328;2022-07-23T14:30:30;4.78;;;1.60;;
50461;SDS011;45257;37.996;-122.328;2022-07-23T14:32:57;4.45;;;1.73;;
50461;SDS011;45257;37.996;-122.328;2022-07-23T14:35:24;3.42;;;1.30;;
50461;SDS011;45257;37.996;-122.328;2022-07-23T14:37:51;2.55;;;1.45;;
50461;SDS011;45257;37.996;-122.328;2022-07-23T14:40:18;3.50;;;1.45;;
50461;SDS011;45257;37.996;-122.328;2022-07-23T14:42:45;3.88;;;1.85;;
50461;SDS011;45257;37.996;-122.328;2022-07-23T14:45:12;4.75;;;2.00;;
50461;SDS011;45257;37.996;-122.328;2022-07-23T14:47:39;4.05;;;1.75;;
50461;SDS011;45257;37.996;-122.328;2022-07-23T14:50:06;5.00;;;1.35;;
50461;SDS011;45257;37.996;-122.328;2022-07-23T14:52:34;5.18;;;1.70;;
50461;SDS011;45257;37.996;-122.328;2022-07-23T14:55:01;6.00;;;1.92;;
50461;SDS011;45257;37.996;-122.328;2022-07-23T14:57:28;6.40;;;1.60;;
50461;SDS011;45257;37.996;-122.328;2022-07-23T14:59:55;2.58;;;1.20;;